Hovedside
METAR-TAF:

METAR-TAF

Lufthavner :

Flystasjon

Linköping, Sverige

breddegrad: 58-24N, lengdegrad: 015-31E, høyde over havet: 93 m

Gjeldene værobservasjon

Denne rapporten ble laget for 34 minutter siden, klokken 12:20 UTC
Vind 11 kt fra Vest
Temperatur 29°C
Luftfuktighet 37%
Trykk 1010 hPa
Sikt 10 km eller mer

METAR: ESCF 201220Z AUTO 27011KT 9999 NCD 29/13 Q1010

Tid: 14:54 (12:54 UTC)

Varsel

Denne rapporten ble laget for 4 timer og 24 minutter siden, klokken 08:30 UTC
Varsel gyldig fra 20. klokken 09 UTC til 20. klokken 12 UTC
Vind 5 kt fra Vest-nordvest
Sikt 10 km eller mer
ingen skyer under 1500 m og ingen bygeskyer
Midlertidig
fra 20. klokken 09 UTC til 20. klokken 12 UTC
Sikt: 3000 m
Brutte skyer i en høyde av 6000 ft, Bygeskyer.
torden, regn

TAF: ESCF 200830Z 2009/2012 30005KT CAVOK TEMPO 2009/2012 3000 TSRA BKN060CB

Værobservasjoner og værvarsel for over 4000 flyplasser (METAR- og TAF-rapporter).

Tilgjengelige stasjoner er representert av de røde og gule prikkene på kartet.

Hold musepekeren over prikken for å se navnet på stasjonen.

Klikk så for å se værobservasjoner og -varsler.

For å forandre kartet kan du klikke på den grønne knappen med svart kryss for å zoome inn, på den grønne knappen med strek for å zoome ut, eller på de grønne pilene for å se tilstøtende kart.


METAR-TAF: